I67

Cincinnati West Airport

Harrison, Ohio, USA
METAR KI67 161255Z AUTO 00000KT 10SM OVC009 03/02 A3005 RMK AO1
Observed Flight Rules
Dec-16 @ 12:55 UTC (31 minutes ago) Instrument Flight Rules
Visibility Clouds
10 miles
  • Overcast at 900' AGL
Temperatures Readings
Current 3°C / 37°F
Dewpoint 2°C / 36°F
Humidity 93%
Altimeter 30.05" Hg
Pressure 1018 hPa
Elevation 178
METAR KI67 161255Z AUTO 00000KT 10SM OVC009 03/02 A3005 RMK AO1
Observed Flight Rules
Dec-16 @ 12:55 UTC
(31 minutes ago)
IFR
Clouds
  • Overcast at 900' AGL
Temperature Dewpoint
3°C / 37°F 2°C / 36°F
Humidity Altimeter Pressure
93% 30.05" Hg 1018 hPa